Bookmark and Share
Track history (hours):
 

Mary Ann Moran

More information available from US FCC via Universal Licensing System and Coast Guard Vessel Documentation Center.

Last reported at 2014-Apr-17 06:33 UTC. Time now 2014-Apr-17 06:51 UTC.
Position N 29°56' W 090°22'.

Length 170 m; draft 9 m.

Type: Tow > 200 m length. MMSI: 367453420.

NotesDate/timePositionNaut miles runAvg speedWind from/ knotsBaromVisibWave heightAir tempDewpointWater temp
2014-Apr-17 06:33N 29°56' W 090°22'0 0.0
2014-Apr-17 05:33N 29°56' W 090°22'0 0.0
2014-Apr-17 04:33N 29°56' W 090°22'0 0.0
2014-Apr-17 03:33N 29°56' W 090°22'0 0.0
2014-Apr-17 02:31N 29°56' W 090°22'0 0.0
2014-Apr-17 01:33N 29°56' W 090°22'0 0.0
2014-Apr-17 00:33N 29°56' W 090°22'0 0.0
2014-Apr-16 23:32N 29°56' W 090°22'3 3.2
2014-Apr-16 22:28N 29°57' W 090°18'  
2014-Apr-13 22:31N 27°56' W 082°26'0 0.0
2014-Apr-13 21:31N 27°56' W 082°26'0 0.1
2014-Apr-13 20:31N 27°56' W 082°26'0 0.0
2014-Apr-13 19:31N 27°56' W 082°26'0 0.0
2014-Apr-13 18:31N 27°56' W 082°26'0 0.0
2014-Apr-13 17:31N 27°56' W 082°26'0 0.0
2014-Apr-13 16:31N 27°56' W 082°26'0 0.0
2014-Apr-13 15:31N 27°56' W 082°26'0 0.0
2014-Apr-13 14:31N 27°56' W 082°26'0 0.0
2014-Apr-13 13:31N 27°56' W 082°26'0 0.0
2014-Apr-13 12:31N 27°56' W 082°26'0 0.0
2014-Apr-13 11:31N 27°56' W 082°26'0 0.0
2014-Apr-13 10:31N 27°56' W 082°26'0 0.0
2014-Apr-13 09:31N 27°56' W 082°26'0 0.0
2014-Apr-13 08:31N 27°56' W 082°26'0 0.0
2014-Apr-13 07:31N 27°56' W 082°26'0 0.1
2014-Apr-13 06:31N 27°56' W 082°26'0 0.0
2014-Apr-13 05:31N 27°56' W 082°26'0 0.0
2014-Apr-13 04:31N 27°56' W 082°26'0 0.0
2014-Apr-13 03:31N 27°56' W 082°26'0 0.0
2014-Apr-13 02:31N 27°56' W 082°26'0 0.0
2014-Apr-13 01:31N 27°56' W 082°26'0 0.0
2014-Apr-13 00:31N 27°56' W 082°26'0 0.0
2014-Apr-12 23:31N 27°56' W 082°26'0 0.0
2014-Apr-12 22:31N 27°56' W 082°26'0 0.0
2014-Apr-12 21:31N 27°56' W 082°26'0 0.0
2014-Apr-12 20:31N 27°56' W 082°26'0 0.0
2014-Apr-12 19:31N 27°56' W 082°26'0 0.0
2014-Apr-12 18:31N 27°56' W 082°26'0 0.1
2014-Apr-12 17:31N 27°56' W 082°26'1 1.1
2014-Apr-12 16:34N 27°55' W 082°27'1 1.1
2014-Apr-12 15:30N 27°56' W 082°27'0 0.1
2014-Apr-12 14:32N 27°56' W 082°27'0 0.0
2014-Apr-12 13:32N 27°56' W 082°27'0 0.0
2014-Apr-12 12:32N 27°56' W 082°27'0 0.0
2014-Apr-12 11:32N 27°56' W 082°27'0 0.0
2014-Apr-12 10:32N 27°56' W 082°27'0 0.0
2014-Apr-12 09:34N 27°56' W 082°27'0 0.0
2014-Apr-12 08:33N 27°56' W 082°27'0 0.0
2014-Apr-12 07:31N 27°56' W 082°27'0 0.0
2014-Apr-12 06:33N 27°56' W 082°27'0 0.0
2014-Apr-12 05:33N 27°56' W 082°27'0 0.0
2014-Apr-12 04:33N 27°56' W 082°27'0 0.0
2014-Apr-12 03:33N 27°56' W 082°27'0 0.0
2014-Apr-12 02:33N 27°56' W 082°27'0 0.0
2014-Apr-12 01:33N 27°56' W 082°27'0 0.0
2014-Apr-12 00:33N 27°56' W 082°27'0 0.0
2014-Apr-11 23:33N 27°56' W 082°27'0 0.0
2014-Apr-11 22:33N 27°56' W 082°27'0 0.0
2014-Apr-11 21:33N 27°56' W 082°27'0 0.0
2014-Apr-11 20:33N 27°56' W 082°27'0 0.0
2014-Apr-11 19:33N 27°56' W 082°27'0 0.0
2014-Apr-11 18:34N 27°56' W 082°27'0 0.0
2014-Apr-11 17:33N 27°56' W 082°27'0 0.0
2014-Apr-11 16:33N 27°56' W 082°27'0 0.0
2014-Apr-11 15:33N 27°56' W 082°27'0 0.0
2014-Apr-11 14:33N 27°56' W 082°27'0 0.0
2014-Apr-11 13:33N 27°56' W 082°27'0 0.2
2014-Apr-11 12:33N 27°56' W 082°27'6 5.9
2014-Apr-11 11:33N 27°50' W 082°27'9 8.9
2014-Apr-11 10:33N 27°43' W 082°32'  

Dump ship's entire track history

sailing weather and tide predictions

Mary Ann Moran — WDF4572 — position and weather